createdAt,value
2023-04-15T00:01:10.690Z,16.56
2023-04-15T00:03:37.968Z,16.44
2023-04-15T00:06:05.286Z,16.56
2023-04-15T00:08:33.496Z,16.69
2023-04-15T00:11:03.158Z,16.36
2023-04-15T00:13:30.218Z,16.55
2023-04-15T00:15:57.127Z,16.73
2023-04-15T00:18:24.932Z,16.78
2023-04-15T00:20:52.556Z,16.66
2023-04-15T00:23:21.158Z,16.42
2023-04-15T00:25:47.840Z,16.69
2023-04-15T00:28:14.714Z,16.69
2023-04-15T00:30:43.760Z,16.61
2023-04-15T00:33:12.418Z,16.55
2023-04-15T00:35:39.496Z,16.58
2023-04-15T00:38:08.120Z,16.57
2023-04-15T00:40:35.538Z,16.49
2023-04-15T00:43:02.670Z,16.67
2023-04-15T00:45:30.291Z,16.59
2023-04-15T00:47:57.303Z,16.53
2023-04-15T00:50:24.089Z,16.47
2023-04-15T00:52:50.825Z,16.55
2023-04-15T00:55:17.522Z,16.44
2023-04-15T00:57:44.765Z,16.44
2023-04-15T01:00:12.209Z,16.36
2023-04-15T01:02:39.685Z,16.22
2023-04-15T01:05:08.124Z,15.77
2023-04-15T01:07:34.932Z,15.91
2023-04-15T01:10:04.484Z,15.82
2023-04-15T01:12:34.564Z,15.93
2023-04-15T01:15:03.191Z,15.86
2023-04-15T01:17:31.856Z,16.05
2023-04-15T01:19:58.894Z,16.07
2023-04-15T01:22:26.740Z,16.05
2023-04-15T01:25:11.595Z,15.70
2023-04-15T01:27:40.960Z,16.12
2023-04-15T01:30:09.175Z,16.11
2023-04-15T01:32:36.390Z,16.04
2023-04-15T01:35:03.262Z,15.96
2023-04-15T01:37:30.997Z,16.02
2023-04-15T01:39:58.513Z,15.41
2023-04-15T01:42:26.398Z,15.49
2023-04-15T01:44:53.726Z,15.53
2023-04-15T01:47:20.794Z,15.44
2023-04-15T01:49:47.793Z,15.83
2023-04-15T01:52:15.966Z,16.06
2023-04-15T01:54:42.639Z,16.20
2023-04-15T01:57:09.868Z,16.17
2023-04-15T01:59:37.323Z,16.19
2023-04-15T02:02:05.456Z,16.25
2023-04-15T02:04:35.532Z,16.40
2023-04-15T02:07:02.373Z,16.07
2023-04-15T02:09:29.277Z,15.84
2023-04-15T02:11:56.576Z,15.66
2023-04-15T02:14:23.828Z,16.27
2023-04-15T02:16:50.564Z,15.64
2023-04-15T02:19:17.593Z,16.03
2023-04-15T02:21:47.168Z,16.40
2023-04-15T02:24:17.900Z,16.07
2023-04-15T02:26:46.628Z,16.24
2023-04-15T02:29:13.304Z,16.37
2023-04-15T02:31:42.248Z,16.93
2023-04-15T02:34:09.427Z,17.22
2023-04-15T02:36:36.426Z,17.31
2023-04-15T02:39:05.932Z,17.34
2023-04-15T02:41:32.695Z,17.31
2023-04-15T02:43:59.745Z,17.32
2023-04-15T02:46:30.310Z,17.05
2023-04-15T02:48:57.093Z,17.01
2023-04-15T02:51:24.534Z,16.97
2023-04-15T02:53:51.275Z,16.93
2023-04-15T02:56:19.507Z,17.16
2023-04-15T02:58:46.636Z,17.28
2023-04-15T03:01:16.533Z,16.87
2023-04-15T03:03:43.639Z,17.13
2023-04-15T03:06:10.758Z,17.23
2023-04-15T03:08:37.406Z,17.30
2023-04-15T03:11:05.022Z,17.18
2023-04-15T03:13:33.773Z,17.10
2023-04-15T03:16:09.985Z,16.80
2023-04-15T03:18:36.853Z,16.72
2023-04-15T03:21:05.003Z,16.52
2023-04-15T03:23:34.949Z,16.53
2023-04-15T03:26:04.902Z,16.55
2023-04-15T03:28:33.413Z,16.62
2023-04-15T03:31:01.063Z,16.13
2023-04-15T03:33:28.118Z,16.19
2023-04-15T03:35:54.930Z,16.37
2023-04-15T03:38:21.603Z,16.14
2023-04-15T03:40:48.310Z,15.90
2023-04-15T03:43:15.319Z,15.84
2023-04-15T03:45:42.196Z,16.40
2023-04-15T03:48:17.173Z,16.48
2023-04-15T03:50:46.524Z,16.61
2023-04-15T03:53:13.190Z,16.24
2023-04-15T03:55:40.275Z,15.95
2023-04-15T03:58:06.951Z,15.99
2023-04-15T04:00:33.484Z,16.07
2023-04-15T04:03:02.298Z,15.90
2023-04-15T04:05:29.557Z,15.74
2023-04-15T04:07:56.645Z,15.46
2023-04-15T04:10:23.232Z,15.53
2023-04-15T04:12:50.004Z,15.48
2023-04-15T04:15:17.013Z,15.47
2023-04-15T04:17:43.812Z,15.46
2023-04-15T04:20:13.757Z,15.32
2023-04-15T04:22:41.275Z,15.44
2023-04-15T04:25:10.149Z,15.31
2023-04-15T04:27:36.944Z,15.23
2023-04-15T04:30:04.441Z,14.95
2023-04-15T04:32:32.260Z,14.80
2023-04-15T04:34:59.096Z,14.91
2023-04-15T04:37:28.083Z,14.84
2023-04-15T04:39:55.768Z,14.78
2023-04-15T04:42:22.759Z,14.72
2023-04-15T04:44:49.431Z,14.50
2023-04-15T04:47:16.452Z,14.62
2023-04-15T04:49:43.070Z,14.67
2023-04-15T04:52:09.711Z,14.83
2023-04-15T04:54:37.219Z,15.03
2023-04-15T04:57:04.261Z,14.61
2023-04-15T04:59:32.632Z,14.55
2023-04-15T05:01:59.415Z,14.61
2023-04-15T05:04:26.518Z,14.68
2023-04-15T05:06:53.285Z,14.21
2023-04-15T05:09:20.037Z,14.66
2023-04-15T05:11:46.689Z,14.24
2023-04-15T05:14:13.414Z,14.91
2023-04-15T05:16:41.495Z,14.84
2023-04-15T05:19:08.196Z,14.99
2023-04-15T05:21:34.913Z,14.86
2023-04-15T05:24:01.698Z,14.79
2023-04-15T05:26:28.801Z,14.72
2023-04-15T05:28:55.550Z,14.27
2023-04-15T05:31:22.369Z,14.88
2023-04-15T05:33:49.157Z,15.45
2023-04-15T05:36:17.447Z,16.24
2023-04-15T05:38:44.143Z,17.04
2023-04-15T05:41:11.197Z,17.32
2023-04-15T05:43:37.931Z,16.52
2023-04-15T05:46:04.706Z,16.40
2023-04-15T05:48:31.817Z,15.52
2023-04-15T05:50:58.659Z,15.14
2023-04-15T05:53:25.666Z,15.80
2023-04-15T05:55:52.447Z,15.67
2023-04-15T05:58:19.092Z,16.33
2023-04-15T06:00:46.241Z,15.96
2023-04-15T06:03:13.421Z,16.15
2023-04-15T06:05:40.698Z,16.74
2023-04-15T06:08:07.462Z,16.77
2023-04-15T06:10:36.831Z,16.28
2023-04-15T06:13:04.254Z,17.29
2023-04-15T06:15:31.855Z,17.40
2023-04-15T06:17:58.677Z,19.00
2023-04-15T06:20:25.569Z,19.43
2023-04-15T06:22:52.286Z,20.14
2023-04-15T06:25:19.156Z,19.78
2023-04-15T06:27:46.046Z,20.16
2023-04-15T06:30:14.153Z,20.44
2023-04-15T06:32:41.731Z,20.70
2023-04-15T06:35:09.062Z,21.44
2023-04-15T06:37:35.699Z,21.24
2023-04-15T06:40:02.513Z,19.85
2023-04-15T06:42:32.087Z,18.30
2023-04-15T06:44:58.687Z,17.35
2023-04-15T06:47:26.213Z,17.61
2023-04-15T06:49:53.284Z,17.53
2023-04-15T06:52:20.027Z,17.05
2023-04-15T06:54:47.076Z,17.21
2023-04-15T06:57:13.924Z,17.14
2023-04-15T06:59:43.571Z,17.15
2023-04-15T07:02:13.843Z,17.04
2023-04-15T07:04:41.279Z,17.45
2023-04-15T07:07:09.172Z,17.49
2023-04-15T07:09:36.112Z,17.17
2023-04-15T07:12:03.013Z,17.29
2023-04-15T07:14:30.018Z,16.96
2023-04-15T07:16:57.809Z,17.06
2023-04-15T07:19:24.590Z,18.30
2023-04-15T07:21:51.384Z,19.18
2023-04-15T07:24:21.426Z,20.57
2023-04-15T07:26:49.300Z,21.36
2023-04-15T07:29:16.089Z,22.03
2023-04-15T07:31:43.329Z,21.82
2023-04-15T07:34:10.791Z,21.10
2023-04-15T07:36:37.550Z,21.14
2023-04-15T07:39:04.382Z,21.19
2023-04-15T07:41:32.413Z,21.44
2023-04-15T07:43:59.044Z,21.30
2023-04-15T07:46:27.554Z,21.04
2023-04-15T07:48:54.321Z,20.70
2023-04-15T07:51:21.549Z,20.79
2023-04-15T07:53:50.397Z,20.84
2023-04-15T07:56:19.396Z,20.51
2023-04-15T07:58:48.823Z,20.23
2023-04-15T08:01:15.527Z,19.94
2023-04-15T08:03:43.093Z,19.92
2023-04-15T08:06:09.955Z,19.98
2023-04-15T08:08:36.696Z,19.10
2023-04-15T08:11:03.398Z,19.14
2023-04-15T08:13:29.992Z,19.16
2023-04-15T08:16:34.702Z,19.14
2023-04-15T08:19:01.911Z,19.25
2023-04-15T08:21:31.130Z,18.93
2023-04-15T08:23:57.981Z,18.74
2023-04-15T08:26:24.561Z,19.38
2023-04-15T08:28:52.813Z,19.45
2023-04-15T08:31:20.095Z,18.80
2023-04-15T08:33:46.909Z,18.96
2023-04-15T08:36:14.069Z,19.37
2023-04-15T08:38:42.195Z,19.90
2023-04-15T08:41:25.175Z,19.35
2023-04-15T08:44:02.083Z,19.10
2023-04-15T08:46:30.216Z,19.19
2023-04-15T08:48:58.467Z,18.98
2023-04-15T08:51:25.186Z,18.57
2023-04-15T08:53:53.151Z,19.39
2023-04-15T08:56:23.312Z,19.99
2023-04-15T08:58:51.159Z,19.96
2023-04-15T09:01:19.442Z,19.49
2023-04-15T09:03:49.351Z,19.60
2023-04-15T09:06:19.289Z,19.85
2023-04-15T09:08:46.196Z,20.01
2023-04-15T09:11:13.454Z,20.34
2023-04-15T09:13:40.477Z,19.89
2023-04-15T09:16:08.518Z,19.99
2023-04-15T09:18:36.742Z,20.15
2023-04-15T09:21:16.482Z,20.06
2023-04-15T09:24:01.163Z,20.04
2023-04-15T09:26:36.882Z,19.51
2023-04-15T09:29:08.404Z,19.91
2023-04-15T09:31:37.700Z,19.98
2023-04-15T09:34:04.661Z,20.17
2023-04-15T09:36:56.908Z,20.17
2023-04-15T09:39:23.791Z,20.28
2023-04-15T09:42:08.018Z,20.14
2023-04-15T09:44:34.864Z,19.89
2023-04-15T09:47:02.131Z,19.46
2023-04-15T09:49:30.270Z,19.59
2023-04-15T09:52:06.336Z,20.14
2023-04-15T09:54:35.426Z,20.28
2023-04-15T09:57:07.301Z,20.09
2023-04-15T09:59:34.475Z,20.13
2023-04-15T10:02:05.425Z,20.17
2023-04-15T10:04:35.602Z,20.28
2023-04-15T10:07:05.178Z,20.40
2023-04-15T10:09:33.699Z,19.17
2023-04-15T10:12:01.183Z,19.90
2023-04-15T10:14:32.595Z,20.04
2023-04-15T10:17:03.212Z,20.25
2023-04-15T10:19:33.693Z,20.17
2023-04-15T10:22:01.094Z,20.86
2023-04-15T10:24:28.415Z,20.99
2023-04-15T10:26:55.611Z,21.28
2023-04-15T10:29:25.635Z,21.08
2023-04-15T10:31:55.627Z,20.26
2023-04-15T10:34:24.112Z,20.95
2023-04-15T10:36:53.920Z,21.65
2023-04-15T10:39:40.929Z,21.39
2023-04-15T10:42:12.748Z,20.50
2023-04-15T10:44:43.108Z,20.66
2023-04-15T10:47:19.875Z,21.12
2023-04-15T10:49:59.952Z,20.81
2023-04-15T10:52:33.460Z,20.01
2023-04-15T10:55:17.692Z,20.79
2023-04-15T10:57:44.974Z,20.10
2023-04-15T11:00:13.440Z,19.74
2023-04-15T11:02:42.621Z,19.53
2023-04-15T11:05:11.486Z,19.70
2023-04-15T11:07:44.204Z,19.86
2023-04-15T11:10:13.877Z,19.78
2023-04-15T11:12:42.452Z,19.90
2023-04-15T11:15:29.428Z,20.09
2023-04-15T11:18:00.986Z,20.51
2023-04-15T11:20:27.852Z,20.56
2023-04-15T11:23:14.800Z,20.17
2023-04-15T11:25:44.358Z,20.59
2023-04-15T11:28:14.924Z,20.27
2023-04-15T11:30:42.589Z,20.44
2023-04-15T11:33:18.045Z,20.16
2023-04-15T11:35:44.850Z,20.72
2023-04-15T11:38:14.277Z,20.67
2023-04-15T11:40:45.278Z,20.38
2023-04-15T11:43:24.431Z,20.93
2023-04-15T11:46:02.116Z,20.92
2023-04-15T11:48:33.381Z,20.64
2023-04-15T11:51:04.300Z,20.89
2023-04-15T11:53:38.922Z,20.75
2023-04-15T11:56:07.157Z,20.77
2023-04-15T11:58:39.750Z,21.20
2023-04-15T12:01:07.529Z,20.92
2023-04-15T12:03:38.854Z,21.40
2023-04-15T12:06:25.075Z,21.74
2023-04-15T12:08:55.372Z,21.13
2023-04-15T12:11:31.483Z,20.53
2023-04-15T12:14:12.866Z,20.41
2023-04-15T12:17:01.666Z,20.06
2023-04-15T12:19:36.661Z,20.39
2023-04-15T12:22:06.729Z,20.36
2023-04-15T12:24:35.106Z,20.95
2023-04-15T12:27:04.155Z,21.12
2023-04-15T12:29:34.374Z,21.82
2023-04-15T12:32:13.681Z,22.09
2023-04-15T12:34:42.453Z,21.39
2023-04-15T12:37:11.914Z,22.24
2023-04-15T12:39:40.675Z,22.79
2023-04-15T12:42:08.917Z,22.39
2023-04-15T12:44:39.383Z,21.12
2023-04-15T12:47:07.938Z,21.38
2023-04-15T12:49:35.536Z,21.32
2023-04-15T12:52:03.288Z,21.59
2023-04-15T12:54:31.432Z,21.27
2023-04-15T12:56:58.790Z,21.08
2023-04-15T12:59:28.217Z,21.01
2023-04-15T13:01:56.495Z,21.22
2023-04-15T13:04:27.687Z,21.34
2023-04-15T13:06:54.469Z,20.80
2023-04-15T13:09:25.071Z,21.23
2023-04-15T13:11:52.755Z,21.01
2023-04-15T13:14:19.829Z,21.02
2023-04-15T13:16:46.635Z,21.08
2023-04-15T13:19:13.252Z,20.80
2023-04-15T13:21:39.947Z,21.11
2023-04-15T13:24:07.235Z,21.04
2023-04-15T13:26:34.189Z,21.04
2023-04-15T13:29:03.780Z,21.63
2023-04-15T13:31:31.129Z,21.42
2023-04-15T13:33:58.166Z,21.37
2023-04-15T13:36:24.970Z,21.80
2023-04-15T13:38:54.414Z,21.76
2023-04-15T13:41:21.401Z,21.08
2023-04-15T13:43:49.420Z,21.80
2023-04-15T13:46:16.665Z,21.09
2023-04-15T13:48:43.750Z,21.21
2023-04-15T13:51:10.735Z,20.77
2023-04-15T13:53:38.264Z,20.82
2023-04-15T13:56:09.168Z,20.77
2023-04-15T13:58:37.517Z,20.63
2023-04-15T14:01:07.130Z,19.97
2023-04-15T14:03:37.488Z,19.92
2023-04-15T14:06:05.773Z,19.86
2023-04-15T14:08:32.718Z,19.78
2023-04-15T14:11:02.139Z,20.02
2023-04-15T14:13:29.244Z,20.10
2023-04-15T14:15:57.084Z,19.93
2023-04-15T14:18:24.190Z,20.10
2023-04-15T14:20:54.683Z,19.96
2023-04-15T14:23:28.967Z,20.19
2023-04-15T14:25:59.127Z,20.02
2023-04-15T14:28:28.314Z,20.40
2023-04-15T14:30:55.463Z,20.53
2023-04-15T14:33:22.360Z,20.26
2023-04-15T14:35:51.723Z,20.45
2023-04-15T14:38:24.850Z,20.93
2023-04-15T14:40:51.854Z,20.71
2023-04-15T14:43:19.396Z,20.71
2023-04-15T14:45:46.226Z,20.51
2023-04-15T14:48:14.015Z,20.48
2023-04-15T14:50:41.129Z,20.08
2023-04-15T14:53:07.904Z,20.27
2023-04-15T14:55:34.726Z,19.62
2023-04-15T14:58:04.826Z,19.37
2023-04-15T15:00:32.186Z,20.09
2023-04-15T15:02:59.163Z,20.17
2023-04-15T15:05:29.820Z,20.28
2023-04-15T15:07:56.530Z,19.48
2023-04-15T15:10:32.717Z,18.82
2023-04-15T15:13:11.143Z,19.32
2023-04-15T15:15:39.133Z,19.75
2023-04-15T15:18:08.415Z,20.12
2023-04-15T15:20:36.133Z,20.32
2023-04-15T15:23:03.307Z,20.37
2023-04-15T15:25:30.495Z,19.49
2023-04-15T15:27:59.117Z,20.41
2023-04-15T15:30:25.932Z,20.50
2023-04-15T15:32:53.796Z,19.81
2023-04-15T15:35:24.777Z,19.79
2023-04-15T15:37:52.374Z,19.75
2023-04-15T15:40:19.290Z,19.53
2023-04-15T15:42:47.614Z,19.44
2023-04-15T15:45:14.863Z,19.64
2023-04-15T15:47:41.798Z,19.26
2023-04-15T15:50:09.111Z,19.16
2023-04-15T15:52:39.311Z,19.02
2023-04-15T15:55:06.562Z,19.42
2023-04-15T15:57:33.443Z,19.31
2023-04-15T16:00:10.624Z,19.29
2023-04-15T16:05:19.296Z,19.71
2023-04-15T16:07:46.023Z,19.65
2023-04-15T16:10:14.111Z,19.54
2023-04-15T16:12:44.764Z,19.35
2023-04-15T16:15:12.427Z,19.33
2023-04-15T16:17:40.410Z,19.44
2023-04-15T16:20:07.763Z,19.31
2023-04-15T16:22:40.862Z,19.55
2023-04-15T16:25:11.402Z,18.82
2023-04-15T16:30:09.785Z,18.68
2023-04-15T16:32:38.088Z,18.63
2023-04-15T16:35:05.160Z,18.27
2023-04-15T16:37:33.371Z,18.60
2023-04-15T16:40:03.329Z,18.25
2023-04-15T16:42:31.365Z,18.07
2023-04-15T16:45:00.365Z,17.98
2023-04-15T16:47:27.119Z,18.26
2023-04-15T16:49:54.752Z,18.05
2023-04-15T16:52:22.760Z,17.95
2023-04-15T16:54:51.063Z,17.79
2023-04-15T16:57:17.991Z,18.00
2023-04-15T16:59:44.896Z,17.84
2023-04-15T17:02:13.257Z,17.40
2023-04-15T17:04:40.272Z,17.37
2023-04-15T17:07:08.854Z,17.65
2023-04-15T17:09:36.361Z,18.00
2023-04-15T17:12:04.726Z,17.62
2023-04-15T17:14:33.143Z,17.93
2023-04-15T17:17:03.525Z,17.88
2023-04-15T17:19:32.068Z,17.24
2023-04-15T17:22:02.279Z,17.74
2023-04-15T17:24:29.728Z,17.55
2023-04-15T17:26:56.934Z,16.92
2023-04-15T17:29:30.291Z,17.49
2023-04-15T17:31:57.614Z,16.97
2023-04-15T17:34:24.442Z,16.81
2023-04-15T17:36:53.549Z,16.80
2023-04-15T17:39:20.789Z,16.84
2023-04-15T17:41:47.554Z,16.36
2023-04-15T17:44:22.396Z,16.64
2023-04-15T17:46:54.034Z,16.19
2023-04-15T17:49:20.875Z,17.04
2023-04-15T17:51:48.809Z,17.36
2023-04-15T17:54:15.581Z,16.84
2023-04-15T17:56:42.273Z,16.98
2023-04-15T17:59:09.042Z,16.70
2023-04-15T18:01:35.868Z,17.14
2023-04-15T18:04:03.418Z,16.93
2023-04-15T18:06:31.420Z,17.30
2023-04-15T18:08:58.012Z,17.17
2023-04-15T18:11:24.750Z,16.80
2023-04-15T18:13:52.970Z,16.83
2023-04-15T18:16:20.092Z,16.72
2023-04-15T18:18:46.854Z,16.70
2023-04-15T18:21:15.888Z,16.46
2023-04-15T18:23:42.802Z,16.36
2023-04-15T18:26:10.108Z,16.21
2023-04-15T18:28:39.152Z,16.07
2023-04-15T18:31:06.350Z,16.74
2023-04-15T18:33:33.202Z,16.32
2023-04-15T18:36:02.076Z,16.99
2023-04-15T18:38:28.895Z,16.96
2023-04-15T18:40:56.141Z,17.07
2023-04-15T18:43:24.194Z,16.28
2023-04-15T18:45:53.463Z,16.73
2023-04-15T18:48:20.568Z,16.85
2023-04-15T18:50:48.030Z,15.79
2023-04-15T18:53:15.627Z,15.44
2023-04-15T18:55:42.535Z,16.03
2023-04-15T18:58:09.417Z,16.16
2023-04-15T19:00:40.595Z,16.14
2023-04-15T19:03:09.793Z,16.38
2023-04-15T19:05:36.931Z,16.07
2023-04-15T19:08:03.875Z,16.19
2023-04-15T19:10:31.319Z,16.06
2023-04-15T19:12:58.063Z,16.35
2023-04-15T19:15:25.140Z,16.14
2023-04-15T19:17:51.976Z,15.91
2023-04-15T19:20:19.216Z,16.30
2023-04-15T19:22:52.695Z,16.32
2023-04-15T19:25:19.719Z,16.08
2023-04-15T19:27:46.406Z,16.60
2023-04-15T19:30:33.244Z,16.74
2023-04-15T19:33:01.585Z,16.14
2023-04-15T19:35:28.298Z,16.41
2023-04-15T19:37:56.610Z,16.58
2023-04-15T19:40:23.716Z,16.23
2023-04-15T19:42:57.576Z,16.61
2023-04-15T19:45:24.271Z,16.86
2023-04-15T19:47:57.957Z,16.93
2023-04-15T19:50:28.977Z,16.33
2023-04-15T19:52:56.067Z,16.15
2023-04-15T19:55:22.985Z,16.82
2023-04-15T19:57:49.968Z,16.61
2023-04-15T20:00:17.586Z,16.84
2023-04-15T20:02:44.432Z,17.25
2023-04-15T20:05:11.164Z,16.56
2023-04-15T20:07:39.635Z,17.11
2023-04-15T20:10:12.222Z,16.82
2023-04-15T20:12:50.029Z,16.53
2023-04-15T20:15:19.289Z,16.78
2023-04-15T20:17:46.217Z,16.38
2023-04-15T20:20:12.913Z,17.09
2023-04-15T20:22:41.407Z,17.14
2023-04-15T20:25:08.849Z,17.12
2023-04-15T20:27:35.759Z,16.78
2023-04-15T20:30:04.698Z,17.30
2023-04-15T20:32:35.249Z,16.97
2023-04-15T20:35:03.818Z,17.09
2023-04-15T20:37:33.181Z,17.30
2023-04-15T20:40:01.219Z,16.78
2023-04-15T20:42:28.153Z,16.49
2023-04-15T20:44:54.880Z,16.24
2023-04-15T20:47:21.605Z,16.30
2023-04-15T20:49:48.313Z,16.41
2023-04-15T20:52:16.558Z,16.28
2023-04-15T20:54:43.223Z,16.72
2023-04-15T20:57:09.838Z,16.22
2023-04-15T20:59:36.563Z,16.09
2023-04-15T21:02:03.266Z,16.53
2023-04-15T21:04:30.154Z,16.11
2023-04-15T21:06:56.853Z,16.14
2023-04-15T21:09:26.805Z,15.92
2023-04-15T21:12:01.150Z,16.24
2023-04-15T21:14:28.901Z,16.82
2023-04-15T21:16:57.715Z,16.51
2023-04-15T21:19:24.438Z,16.48
2023-04-15T21:21:50.986Z,16.18
2023-04-15T21:24:19.716Z,15.73
2023-04-15T21:26:46.656Z,16.29
2023-04-15T21:29:13.477Z,16.01
2023-04-15T21:31:40.439Z,16.37
2023-04-15T21:34:07.481Z,16.75
2023-04-15T21:36:34.313Z,16.82
2023-04-15T21:39:02.712Z,15.89
2023-04-15T21:41:29.879Z,16.18
2023-04-15T21:43:56.781Z,15.82
2023-04-15T21:46:25.675Z,16.06
2023-04-15T21:49:00.235Z,16.40
2023-04-15T21:51:27.699Z,16.27
2023-04-15T21:53:54.259Z,15.75
2023-04-15T21:56:23.218Z,15.97
2023-04-15T21:58:49.984Z,15.96
2023-04-15T22:01:17.012Z,15.70
2023-04-15T22:03:44.087Z,16.07
2023-04-15T22:06:11.296Z,16.63
2023-04-15T22:08:48.364Z,16.43
2023-04-15T22:11:26.237Z,15.66
2023-04-15T22:13:59.468Z,16.52
2023-04-15T22:16:29.005Z,16.13
2023-04-15T22:18:56.045Z,15.84
2023-04-15T22:21:23.295Z,16.28
2023-04-15T22:23:51.093Z,15.92
2023-04-15T22:26:17.731Z,16.28
2023-04-15T22:28:44.299Z,16.08
2023-04-15T22:31:11.208Z,15.94
2023-04-15T22:33:38.775Z,15.89
2023-04-15T22:36:05.829Z,16.53
2023-04-15T22:38:32.542Z,16.16
2023-04-15T22:40:59.346Z,16.17
2023-04-15T22:43:27.378Z,15.62
2023-04-15T22:45:55.133Z,15.65
2023-04-15T22:48:22.593Z,15.72
2023-04-15T22:50:49.789Z,16.23
2023-04-15T22:53:17.548Z,16.36
2023-04-15T22:55:46.678Z,15.72
2023-04-15T22:58:13.820Z,16.35
2023-04-15T23:00:40.843Z,16.31
2023-04-15T23:03:07.699Z,16.06
2023-04-15T23:05:34.538Z,15.80
2023-04-15T23:08:01.619Z,15.21
2023-04-15T23:10:28.677Z,15.51
2023-04-15T23:12:55.361Z,15.42
2023-04-15T23:15:22.169Z,16.01
2023-04-15T23:17:48.840Z,15.88
2023-04-15T23:20:16.269Z,16.08
2023-04-15T23:22:43.274Z,16.06
2023-04-15T23:25:09.944Z,15.72
2023-04-15T23:27:36.809Z,15.78
2023-04-15T23:30:04.170Z,16.08
2023-04-15T23:32:31.028Z,16.62
2023-04-15T23:34:57.702Z,16.65
2023-04-15T23:37:24.293Z,16.40
2023-04-15T23:39:51.001Z,15.35
2023-04-15T23:42:17.553Z,15.47
2023-04-15T23:44:44.932Z,15.77
2023-04-15T23:47:11.564Z,15.52
2023-04-15T23:49:40.890Z,15.71
2023-04-15T23:52:07.568Z,15.78
2023-04-15T23:54:34.452Z,15.79
2023-04-15T23:57:02.323Z,16.08
2023-04-15T23:59:29.556Z,16.06
